Time;durP1;ratioP1;P1;durP2;ratioP2;P2;SDS_P1;SDS_P2;PMS_P1;PMS_P2;Temp;Humidity;BMP_temperature;BMP_pressure;BME280_temperature;BME280_humidity;BME280_pressure;Samples;Min_cycle;Max_cycle;Signal;HPM_P1;HPM_P2
2021/07/09 00:01:43;;;;;;;;;;;;;;;26.59;56.78;100151.97;5113827;28;19919;-51
2021/07/09 00:04:09;;;;;;;;;;;;;;;25.85;58.90;100149.84;5113704;28;19912;-48
2021/07/09 00:06:34;;;;;;;;;;;;;;;25.62;59.65;100139.84;5113085;28;19918;-47
2021/07/09 00:09:03;;;;;;;;;;;;;;;25.55;59.72;100138.31;5113628;28;20457;-50
2021/07/09 00:11:28;;;;;;;;;;;;;;;25.53;59.91;100135.06;5113320;28;20398;-49
2021/07/09 00:13:53;;;;;;;;;;;;;;;25.65;59.48;100148.25;5125857;27;19912;-49
2021/07/09 00:16:19;;;;;;;;;;;;;;;25.64;59.16;100141.16;5134241;27;19915;-47
2021/07/09 00:18:44;;;;;;;;;;;;;;;25.74;59.22;100142.91;5133785;27;19922;-52
2021/07/09 00:21:09;;;;;;;;;;;;;;;25.40;60.22;100141.25;5118462;27;19920;-48
2021/07/09 00:23:35;;;;;;;;;;;;;;;25.21;60.85;100146.63;5113427;28;19919;-48
2021/07/09 00:26:00;;;;;;;;;;;;;;;25.01;61.39;100141.41;5124953;27;20365;-49
2021/07/09 00:28:26;;;;;;;;;;;;;;;25.24;60.60;100134.34;5133809;27;19911;-46
2021/07/09 00:30:51;;;;;;;;;;;;;;;25.08;61.57;100136.44;5133725;27;19951;-49
2021/07/09 00:33:16;;;;;;;;;;;;;;;25.02;61.60;100138.41;5133392;27;19968;-51
2021/07/09 00:35:41;;;;;;;;;;;;;;;25.00;61.77;100134.34;5133797;27;19943;-49
2021/07/09 00:38:07;;;;;;;;;;;;;;;25.12;61.33;100138.28;5133660;27;20383;-48
2021/07/09 00:40:32;;;;;;;;;;;;;;;25.17;61.50;100138.22;5133384;27;19919;-49
2021/07/09 00:42:57;;;;;;;;;;;;;;;25.34;60.77;100129.59;5133310;27;19911;-50
2021/07/09 00:45:23;;;;;;;;;;;;;;;25.18;61.45;100141.75;5133702;27;20430;-48
2021/07/09 00:47:48;;;;;;;;;;;;;;;24.93;62.23;100142.88;5133096;27;20378;-51
2021/07/09 00:50:14;;;;;;;;;;;;;;;24.99;62.09;100138.97;5133089;27;19915;-49
2021/07/09 00:52:39;;;;;;;;;;;;;;;24.85;61.88;100124.47;5114883;27;19935;-50
2021/07/09 00:55:05;;;;;;;;;;;;;;;25.10;61.93;100142.41;5133058;27;20025;-49
2021/07/09 00:57:30;;;;;;;;;;;;;;;25.64;59.43;100134.91;5133050;27;20328;-49
2021/07/09 00:59:55;;;;;;;;;;;;;;;25.00;62.08;100139.78;5114716;27;20015;-52
2021/07/09 01:02:23;;;;;;;;;;;;;;;24.93;62.57;100130.06;5114432;27;20275;-50
2021/07/09 01:04:48;;;;;;;;;;;;;;;24.95;62.42;100138.75;5132854;27;19938;-50
2021/07/09 01:07:14;;;;;;;;;;;;;;;24.90;62.71;100138.81;5132830;27;20321;-50
2021/07/09 01:09:39;;;;;;;;;;;;;;;25.03;62.08;100150.09;5133029;27;19950;-51
2021/07/09 01:12:04;;;;;;;;;;;;;;;25.17;61.80;100142.88;5132820;27;19949;-53
2021/07/09 01:14:30;;;;;;;;;;;;;;;25.11;62.16;100135.84;5132711;27;19918;-51
2021/07/09 01:16:55;;;;;;;;;;;;;;;25.18;61.86;100139.81;5132579;27;19922;-51
2021/07/09 01:19:20;;;;;;;;;;;;;;;25.04;61.98;100135.41;5131972;27;19927;-48
2021/07/09 01:21:46;;;;;;;;;;;;;;;25.84;59.53;100137.34;5112487;28;19969;-52
2021/07/09 01:24:11;;;;;;;;;;;;;;;24.46;63.75;100139.75;5112376;28;20007;-51
2021/07/09 01:26:37;;;;;;;;;;;;;;;24.22;65.03;100141.59;5129925;27;19912;-48
2021/07/09 01:29:03;;;;;;;;;;;;;;;23.84;66.06;100146.78;5132793;27;20272;-50
2021/07/09 01:31:28;;;;;;;;;;;;;;;23.99;65.61;100142.06;5132725;27;20368;-52
2021/07/09 01:33:53;;;;;;;;;;;;;;;24.28;64.88;100140.50;5114015;27;19950;-50
2021/07/09 01:36:18;;;;;;;;;;;;;;;24.77;63.32;100151.19;5132669;27;19915;-50
2021/07/09 01:38:44;;;;;;;;;;;;;;;24.58;63.62;100145.69;5132464;27;20346;-49
2021/07/09 01:41:09;;;;;;;;;;;;;;;24.47;64.52;100148.75;5132371;27;19922;-52
2021/07/09 01:43:34;;;;;;;;;;;;;;;24.63;63.87;100144.00;5132297;27;19915;-49
2021/07/09 01:46:00;;;;;;;;;;;;;;;24.67;63.72;100145.84;5130810;27;20340;-49
2021/07/09 01:48:25;;;;;;;;;;;;;;;25.08;62.18;100156.28;5122109;28;19923;-50
2021/07/09 01:50:50;;;;;;;;;;;;;;;25.39;60.88;100146.97;5123349;28;19960;-50
2021/07/09 01:53:16;;;;;;;;;;;;;;;24.93;62.50;100140.94;5122671;28;20398;-50
2021/07/09 01:55:41;;;;;;;;;;;;;;;24.90;62.51;100152.44;5121306;28;19919;-49
2021/07/09 01:58:06;;;;;;;;;;;;;;;25.02;62.24;100143.84;5121342;28;20374;-52
2021/07/09 02:00:32;;;;;;;;;;;;;;;24.95;62.69;100149.63;5122465;28;20012;-51
2021/07/09 02:02:57;;;;;;;;;;;;;;;25.69;60.24;100148.47;5120491;28;19912;-51
2021/07/09 02:05:23;;;;;;;;;;;;;;;25.30;60.93;100146.78;5116702;28;20272;-50
2021/07/09 02:07:49;;;;;;;;;;;;;;;24.80;63.04;100147.06;5111678;28;19950;-51
2021/07/09 02:10:16;;;;;;;;;;;;;;;24.69;63.27;100149.09;5111517;28;19912;-50
2021/07/09 02:12:41;;;;;;;;;;;;;;;24.54;63.84;100144.63;5111640;28;19922;-50
2021/07/09 02:15:09;;;;;;;;;;;;;;;24.63;63.69;100147.53;5111684;28;19998;-49
2021/07/09 02:17:34;;;;;;;;;;;;;;;25.29;61.81;100150.63;5111532;28;19916;-49
2021/07/09 02:19:59;;;;;;;;;;;;;;;24.87;62.90;100142.09;5111319;28;19919;-48
2021/07/09 02:22:25;;;;;;;;;;;;;;;24.61;63.68;100147.00;5117056;28;19921;-52
2021/07/09 02:24:50;;;;;;;;;;;;;;;24.66;63.67;100149.69;5132060;28;19911;-51
2021/07/09 02:27:16;;;;;;;;;;;;;;;24.75;63.50;100150.69;5132237;28;19957;-50
2021/07/09 02:29:41;;;;;;;;;;;;;;;24.59;63.97;100147.28;5133200;27;19959;-51
2021/07/09 02:32:08;;;;;;;;;;;;;;;24.49;64.51;100143.84;5136507;27;19911;-50
2021/07/09 02:34:33;;;;;;;;;;;;;;;24.86;63.45;100150.56;5136206;27;19923;-51
2021/07/09 02:36:58;;;;;;;;;;;;;;;24.74;63.17;100146.31;5117505;27;19911;-51
2021/07/09 02:39:27;;;;;;;;;;;;;;;24.07;65.70;100146.09;5135977;27;20303;-51
2021/07/09 02:41:52;;;;;;;;;;;;;;;24.03;65.96;100145.03;5136255;27;19950;-51
2021/07/09 02:44:17;;;;;;;;;;;;;;;24.24;65.24;100136.69;5136052;27;19935;-51
2021/07/09 02:46:43;;;;;;;;;;;;;;;24.17;64.96;100145.19;5135503;27;20314;-53
2021/07/09 02:49:08;;;;;;;;;;;;;;;25.17;62.25;100145.59;5135261;27;19911;-50
2021/07/09 02:51:34;;;;;;;;;;;;;;;24.45;64.33;100140.88;5135420;27;19915;-52
2021/07/09 02:53:59;;;;;;;;;;;;;;;24.44;64.75;100143.88;5135562;27;19918;-52
2021/07/09 02:56:25;;;;;;;;;;;;;;;24.51;64.40;100144.34;5135811;27;19912;-53
2021/07/09 02:58:50;;;;;;;;;;;;;;;24.54;64.58;100144.63;5135715;27;19966;-49
2021/07/09 03:01:15;;;;;;;;;;;;;;;24.75;64.00;100147.13;5135738;27;19923;-51
2021/07/09 03:03:40;;;;;;;;;;;;;;;24.78;63.83;100149.28;5135577;27;19994;-50
2021/07/09 03:06:06;;;;;;;;;;;;;;;25.08;63.03;100142.69;5135737;27;20480;-50
2021/07/09 03:08:31;;;;;;;;;;;;;;;25.62;61.07;100146.09;5135358;27;19919;-51
2021/07/09 03:10:56;;;;;;;;;;;;;;;24.97;63.19;100154.78;5135708;27;19911;-51
2021/07/09 03:13:21;;;;;;;;;;;;;;;24.73;63.74;100147.44;5135469;27;19911;-52
2021/07/09 03:15:47;;;;;;;;;;;;;;;24.58;64.87;100151.13;5135136;27;20351;-53
2021/07/09 03:18:12;;;;;;;;;;;;;;;24.55;64.59;100151.69;5135328;27;19919;-52
2021/07/09 03:20:37;;;;;;;;;;;;;;;24.50;65.19;100154.44;5124144;27;19926;-52
2021/07/09 03:23:03;;;;;;;;;;;;;;;24.45;65.71;100156.38;5126000;27;19922;-50
2021/07/09 03:25:28;;;;;;;;;;;;;;;24.48;65.83;100153.09;5135165;27;19911;-52
2021/07/09 03:27:53;;;;;;;;;;;;;;;24.33;66.16;100156.75;5135243;27;20443;-52
2021/07/09 03:30:19;;;;;;;;;;;;;;;24.41;65.80;100156.16;5134878;27;20336;-50
2021/07/09 03:32:44;;;;;;;;;;;;;;;24.52;64.97;100149.56;5135319;27;20351;-50
2021/07/09 03:35:09;;;;;;;;;;;;;;;24.41;65.40;100142.56;5135152;27;19919;-52
2021/07/09 03:37:35;;;;;;;;;;;;;;;24.48;66.07;100147.63;5134605;27;20434;-52
2021/07/09 03:40:00;;;;;;;;;;;;;;;24.66;65.15;100148.88;5134924;27;19916;-51
2021/07/09 03:42:25;;;;;;;;;;;;;;;24.67;65.27;100139.59;5133222;27;20340;-51
2021/07/09 03:44:50;;;;;;;;;;;;;;;25.10;63.75;100140.47;5134295;27;19918;-52
2021/07/09 03:47:16;;;;;;;;;;;;;;;25.30;63.52;100147.63;5134306;27;20339;-51
2021/07/09 03:49:41;;;;;;;;;;;;;;;25.43;62.57;100158.91;5134615;27;20007;-49
2021/07/09 03:52:06;;;;;;;;;;;;;;;25.65;61.64;100145.50;5134643;27;20299;-53
2021/07/09 03:54:32;;;;;;;;;;;;;;;25.60;61.86;100140.13;5134486;27;19912;-50
2021/07/09 03:56:57;;;;;;;;;;;;;;;25.91;61.22;100145.13;5134054;27;19960;-50
2021/07/09 03:59:22;;;;;;;;;;;;;;;26.18;60.29;100143.63;5133747;27;19945;-50
2021/07/09 04:01:48;;;;;;;;;;;;;;;26.66;58.43;100144.19;5133629;27;20355;-52
2021/07/09 04:04:13;;;;;;;;;;;;;;;26.44;59.36;100147.56;5133717;27;19922;-52
2021/07/09 04:06:38;;;;;;;;;;;;;;;26.61;58.83;100141.56;5133641;27;19963;-50
2021/07/09 04:09:03;;;;;;;;;;;;;;;26.55;59.56;100142.72;5133511;27;19927;-52
2021/07/09 04:11:29;;;;;;;;;;;;;;;26.60;58.98;100145.41;5133473;27;19911;-50
2021/07/09 04:13:54;;;;;;;;;;;;;;;26.60;59.04;100145.41;5133362;27;19918;-50
2021/07/09 04:16:19;;;;;;;;;;;;;;;26.76;58.41;100143.19;5133046;27;19919;-50
2021/07/09 04:18:45;;;;;;;;;;;;;;;27.17;56.75;100150.59;5133008;27;19920;-51
2021/07/09 04:21:10;;;;;;;;;;;;;;;27.39;56.21;100154.53;5117338;27;19978;-52
2021/07/09 04:23:35;;;;;;;;;;;;;;;27.89;54.76;100149.06;5128855;27;19911;-53
2021/07/09 04:26:00;;;;;;;;;;;;;;;27.74;54.92;100146.66;5133028;27;20301;-50
2021/07/09 04:28:26;;;;;;;;;;;;;;;27.97;54.11;100147.50;5133072;27;20301;-50
2021/07/09 04:30:54;;;;;;;;;;;;;;;28.22;53.83;100152.38;5132588;27;20004;-50
2021/07/09 04:33:19;;;;;;;;;;;;;;;28.73;52.49;100149.44;5132539;27;19933;-51
2021/07/09 04:35:45;;;;;;;;;;;;;;;28.94;51.56;100157.91;5132574;27;19915;-53
2021/07/09 04:38:10;;;;;;;;;;;;;;;29.66;49.72;100158.56;5123733;27;19965;-52
2021/07/09 04:40:35;;;;;;;;;;;;;;;29.25;50.20;100160.63;5092761;28;20389;-51
2021/07/09 04:43:00;;;;;;;;;;;;;;;29.47;49.11;100156.13;5092586;28;19912;-51
2021/07/09 04:45:26;;;;;;;;;;;;;;;29.57;49.12;100156.63;5091558;28;20331;-51
2021/07/09 04:47:51;;;;;;;;;;;;;;;29.92;48.66;100161.34;5091241;28;20042;-50
2021/07/09 04:50:16;;;;;;;;;;;;;;;30.79;46.45;100169.44;5091221;28;20383;-48
2021/07/09 04:52:41;;;;;;;;;;;;;;;29.61;48.93;100160.34;5090978;28;19916;-51
2021/07/09 04:55:07;;;;;;;;;;;;;;;29.94;48.32;100165.38;5091400;28;20021;-51
2021/07/09 04:57:32;;;;;;;;;;;;;;;30.24;47.41;100159.22;5091092;28;19951;-51
2021/07/09 04:59:58;;;;;;;;;;;;;;;30.41;47.12;100156.47;5091160;28;20033;-51
2021/07/09 05:02:24;;;;;;;;;;;;;;;31.23;45.21;100152.78;5091434;28;19924;-51
2021/07/09 05:04:50;;;;;;;;;;;;;;;31.37;45.35;100159.59;5091148;28;19912;-51
2021/07/09 05:07:15;;;;;;;;;;;;;;;31.16;45.41;100158.78;5091099;28;19919;-50
2021/07/09 05:09:40;;;;;;;;;;;;;;;31.36;44.52;100160.75;5090987;28;19912;-50
2021/07/09 05:12:06;;;;;;;;;;;;;;;31.50;44.52;100157.78;5091178;28;19912;-52
2021/07/09 05:14:31;;;;;;;;;;;;;;;32.13;43.36;100154.22;5090700;28;19954;-50
2021/07/09 05:16:56;;;;;;;;;;;;;;;32.64;42.56;100165.03;5090190;28;19920;-50
2021/07/09 05:19:21;;;;;;;;;;;;;;;32.32;42.83;100165.50;5089933;28;20292;-51
2021/07/09 05:21:47;;;;;;;;;;;;;;;32.34;42.97;100152.19;5092449;27;19922;-52
2021/07/09 05:24:13;;;;;;;;;;;;;;;32.18;42.64;100145.75;5131094;27;20396;-51
2021/07/09 05:26:38;;;;;;;;;;;;;;;32.66;41.91;100152.53;5131143;27;19958;-51
2021/07/09 05:29:04;;;;;;;;;;;;;;;32.95;40.63;100145.19;5130937;27;20003;-51
2021/07/09 05:31:29;;;;;;;;;;;;;;;32.70;42.09;100147.94;5131131;27;19960;-51
2021/07/09 05:33:54;;;;;;;;;;;;;;;33.04;41.06;100147.84;5130926;27;19912;-49
2021/07/09 05:36:21;;;;;;;;;;;;;;;33.43;39.83;100143.53;5131003;27;19956;-49
2021/07/09 05:38:46;;;;;;;;;;;;;;;33.60;39.25;100147.19;5130705;27;20302;-51
2021/07/09 05:41:11;;;;;;;;;;;;;;;33.29;40.33;100148.63;5130697;27;19918;-49
2021/07/09 05:43:36;;;;;;;;;;;;;;;33.53;39.93;100150.56;5130580;27;20052;-50
2021/07/09 05:46:02;;;;;;;;;;;;;;;33.63;39.44;100150.06;5130466;27;19912;-52
2021/07/09 05:48:27;;;;;;;;;;;;;;;34.99;36.81;100147.38;5112280;28;19951;-51
2021/07/09 05:50:52;;;;;;;;;;;;;;;34.19;37.45;100162.31;5130254;27;20139;-52
2021/07/09 05:53:18;;;;;;;;;;;;;;;34.27;37.34;100147.53;5130356;28;19934;-49
2021/07/09 05:55:45;;;;;;;;;;;;;;;34.11;37.15;100146.69;5130218;27;20073;-50
2021/07/09 05:58:10;;;;;;;;;;;;;;;34.88;36.04;100140.00;5130717;27;19919;-54
2021/07/09 06:00:36;;;;;;;;;;;;;;;34.43;37.58;100150.31;5130619;28;19912;-49
2021/07/09 06:03:01;;;;;;;;;;;;;;;34.26;37.74;100154.22;5130258;28;19955;-52
2021/07/09 06:05:27;;;;;;;;;;;;;;;34.52;38.02;100139.06;5132882;27;19916;-52
2021/07/09 06:07:52;;;;;;;;;;;;;;;35.05;36.21;100139.59;5134912;27;19972;-52
2021/07/09 06:10:17;;;;;;;;;;;;;;;34.50;36.18;100142.22;5134399;27;20349;-50
2021/07/09 06:12:42;;;;;;;;;;;;;;;34.50;36.78;100144.97;5134220;27;20019;-52
2021/07/09 06:15:08;;;;;;;;;;;;;;;34.24;37.02;100149.03;5134140;27;19951;-49
2021/07/09 06:17:33;;;;;;;;;;;;;;;34.15;37.52;100136.53;5134448;27;19920;-52
2021/07/09 06:19:58;;;;;;;;;;;;;;;34.80;36.29;100131.53;5129285;27;20004;-52
2021/07/09 06:22:24;;;;;;;;;;;;;;;34.81;35.87;100138.66;5114539;28;20414;-50
2021/07/09 06:24:49;;;;;;;;;;;;;;;35.05;35.96;100142.38;5114023;28;19951;-49
2021/07/09 06:27:14;;;;;;;;;;;;;;;35.59;34.59;100135.28;5113970;28;19944;-49
2021/07/09 06:29:40;;;;;;;;;;;;;;;35.63;34.81;100131.44;5131344;27;20002;-51
2021/07/09 06:32:05;;;;;;;;;;;;;;;35.68;34.80;100132.31;5134872;27;19912;-50
2021/07/09 06:34:31;;;;;;;;;;;;;;;35.72;34.21;100125.72;5135106;27;19911;-51
2021/07/09 06:36:57;;;;;;;;;;;;;;;36.10;33.75;100118.53;5135084;27;19992;-50
2021/07/09 06:39:22;;;;;;;;;;;;;;;37.30;31.74;100120.09;5135434;27;19973;-52
2021/07/09 06:41:47;;;;;;;;;;;;;;;36.40;33.30;100120.66;5135572;27;19918;-50
2021/07/09 06:44:13;;;;;;;;;;;;;;;36.31;32.86;100115.38;5135274;27;19915;-51
2021/07/09 06:46:39;;;;;;;;;;;;;;;36.15;33.00;100114.66;5135122;27;19911;-49
2021/07/09 06:49:04;;;;;;;;;;;;;;;37.03;31.51;100110.97;5135339;27;19918;-52
2021/07/09 06:51:30;;;;;;;;;;;;;;;37.04;30.35;100112.59;5134921;27;19911;-51
2021/07/09 06:53:55;;;;;;;;;;;;;;;36.18;31.73;100113.94;5135099;27;20372;-51
2021/07/09 06:56:20;;;;;;;;;;;;;;;35.81;32.64;100114.41;5132763;27;19959;-52
2021/07/09 06:58:45;;;;;;;;;;;;;;;36.18;32.12;100108.41;5113859;28;19918;-48
2021/07/09 07:01:11;;;;;;;;;;;;;;;36.84;31.26;100111.09;5114099;28;19965;-49
2021/07/09 07:03:36;;;;;;;;;;;;;;;36.76;31.42;100110.19;5113815;28;19919;-51
2021/07/09 07:06:01;;;;;;;;;;;;;;;36.80;31.60;100099.94;5114493;28;19934;-51
2021/07/09 07:08:27;;;;;;;;;;;;;;;36.86;31.15;100097.66;5113606;28;20423;-52
2021/07/09 07:10:52;;;;;;;;;;;;;;;37.82;29.29;100087.03;5095443;28;19972;-51
2021/07/09 07:13:18;;;;;;;;;;;;;;;37.16;30.46;100086.63;5113890;28;19942;-50
2021/07/09 07:15:44;;;;;;;;;;;;;;;37.38;30.26;100093.25;5113446;28;19943;-51
2021/07/09 07:18:09;;;;;;;;;;;;;;;37.35;29.10;100082.91;5113616;28;19920;-51
2021/07/09 07:20:35;;;;;;;;;;;;;;;38.23;27.96;100092.66;5121955;27;19919;-53
2021/07/09 07:23:01;;;;;;;;;;;;;;;36.86;29.69;100089.34;5114041;28;20001;-51
2021/07/09 07:25:26;;;;;;;;;;;;;;;36.78;29.13;100089.25;5113744;28;19985;-51
2021/07/09 07:27:51;;;;;;;;;;;;;;;37.06;28.88;100081.72;5116377;27;19911;-50
2021/07/09 07:30:17;;;;;;;;;;;;;;;37.42;28.96;100083.00;5134112;27;20420;-50
2021/07/09 07:32:46;;;;;;;;;;;;;;;38.13;27.45;100080.22;5134100;27;19915;-51
2021/07/09 07:35:11;;;;;;;;;;;;;;;37.66;27.79;100078.13;5134052;27;19911;-52
2021/07/09 07:37:37;;;;;;;;;;;;;;;37.46;28.42;100081.06;5134469;27;19918;-50
2021/07/09 07:40:02;;;;;;;;;;;;;;;37.46;28.29;100083.84;5134214;27;19923;-52
2021/07/09 07:42:28;;;;;;;;;;;;;;;38.62;27.13;100078.28;5134022;27;19958;-51
2021/07/09 07:44:53;;;;;;;;;;;;;;;37.89;27.40;100080.75;5115541;27;19995;-51
2021/07/09 07:47:21;;;;;;;;;;;;;;;37.05;28.41;100074.53;5133646;27;20376;-51
2021/07/09 07:49:46;;;;;;;;;;;;;;;37.17;28.43;100064.06;5133827;27;19911;-50
2021/07/09 07:52:12;;;;;;;;;;;;;;;37.53;28.42;100066.47;5133909;27;19918;-49
2021/07/09 07:54:37;;;;;;;;;;;;;;;37.02;28.17;100072.53;5133611;27;19911;-49
2021/07/09 07:57:02;;;;;;;;;;;;;;;36.26;28.31;100067.78;5133915;27;20367;-50
2021/07/09 07:59:28;;;;;;;;;;;;;;;35.85;28.61;100065.44;5133338;27;20015;-51
2021/07/09 08:01:53;;;;;;;;;;;;;;;35.21;30.08;100071.28;5133592;27;19916;-51
2021/07/09 08:04:18;;;;;;;;;;;;;;;35.95;28.35;100066.84;5133467;27;19927;-51
2021/07/09 08:06:43;;;;;;;;;;;;;;;36.39;28.37;100070.00;5133579;27;19915;-56
2021/07/09 08:09:09;;;;;;;;;;;;;;;36.57;28.42;100075.81;5133544;27;19955;-51
2021/07/09 08:11:34;;;;;;;;;;;;;;;36.58;28.51;100071.09;5132980;27;19911;-52
2021/07/09 08:13:59;;;;;;;;;;;;;;;37.12;27.07;100064.34;5133133;27;19923;-51
2021/07/09 08:16:25;;;;;;;;;;;;;;;37.14;26.09;100064.00;5133272;27;20343;-52
2021/07/09 08:18:50;;;;;;;;;;;;;;;37.97;24.34;100062.19;5132865;27;19999;-52
2021/07/09 08:21:15;;;;;;;;;;;;;;;37.12;25.17;100060.78;5116425;27;19920;-50
2021/07/09 08:23:41;;;;;;;;;;;;;;;36.56;26.14;100056.81;5112669;28;19918;-51
2021/07/09 08:26:06;;;;;;;;;;;;;;;36.23;27.11;100052.69;5112534;28;20314;-50
2021/07/09 08:28:31;;;;;;;;;;;;;;;35.80;26.70;100051.91;5120220;27;19911;-52
2021/07/09 08:30:56;;;;;;;;;;;;;;;36.31;26.71;100046.13;5132541;27;19912;-51
2021/07/09 08:33:22;;;;;;;;;;;;;;;37.21;25.37;100055.00;5132841;27;19911;-52
2021/07/09 08:35:47;;;;;;;;;;;;;;;36.84;26.38;100042.56;5132712;27;19998;-52
2021/07/09 08:38:12;;;;;;;;;;;;;;;36.34;25.33;100048.13;5131936;27;19962;-51
2021/07/09 08:40:38;;;;;;;;;;;;;;;36.28;24.52;100046.06;5132330;27;19946;-52
2021/07/09 08:43:03;;;;;;;;;;;;;;;36.02;23.51;100047.56;5132589;27;19912;-50
2021/07/09 08:45:29;;;;;;;;;;;;;;;36.63;21.58;100037.50;5132316;27;20382;-50
2021/07/09 08:47:55;;;;;;;;;;;;;;;36.24;22.43;100036.91;5132209;27;19915;-52
2021/07/09 08:50:20;;;;;;;;;;;;;;;35.95;22.81;100031.63;5132209;27;19921;-50
2021/07/09 08:52:45;;;;;;;;;;;;;;;36.14;23.60;100028.00;5132664;27;19915;-52
2021/07/09 08:55:12;;;;;;;;;;;;;;;35.58;24.87;100034.06;5132161;27;19912;-50
2021/07/09 08:57:40;;;;;;;;;;;;;;;35.72;24.34;100033.56;5132316;27;20002;-51
2021/07/09 09:00:06;;;;;;;;;;;;;;;35.77;24.50;100033.28;5132148;27;20064;-52
2021/07/09 09:02:32;;;;;;;;;;;;;;;35.51;25.29;100028.38;5113235;27;20391;-52
2021/07/09 09:04:57;;;;;;;;;;;;;;;35.30;25.03;100028.78;5132250;27;19915;-52
2021/07/09 09:07:27;;;;;;;;;;;;;;;35.14;24.73;100023.28;5132170;27;19911;-52
2021/07/09 09:09:52;;;;;;;;;;;;;;;35.02;25.25;100030.56;5132328;27;19919;-51
2021/07/09 09:12:17;;;;;;;;;;;;;;;35.57;23.59;100029.72;5131695;27;19984;-52
2021/07/09 09:14:43;;;;;;;;;;;;;;;35.01;24.44;100015.13;5131053;27;19912;-52
2021/07/09 09:17:25;;;;;;;;;;;;;;;34.94;25.09;100011.41;5113861;27;19972;-50
2021/07/09 09:20:13;;;;;;;;;;;;;;;35.24;24.70;100022.72;5127083;27;19934;-51
2021/07/09 09:22:47;;;;;;;;;;;;;;;35.34;24.20;100010.28;5100637;28;20010;-52
2021/07/09 09:25:13;;;;;;;;;;;;;;;35.81;24.21;100028.59;5111144;28;19912;-52
2021/07/09 09:27:38;;;;;;;;;;;;;;;35.28;24.63;100028.34;5111664;28;20411;-52
2021/07/09 09:30:13;;;;;;;;;;;;;;;34.19;26.18;100022.28;5093178;28;19916;-48
2021/07/09 09:32:45;;;;;;;;;;;;;;;34.83;26.42;100013.94;5111496;28;19935;-51
2021/07/09 09:35:10;;;;;;;;;;;;;;;35.03;25.33;100012.81;5111207;28;19912;-48
2021/07/09 09:37:36;;;;;;;;;;;;;;;34.47;26.42;100011.13;5111637;28;19923;-49
2021/07/09 09:40:01;;;;;;;;;;;;;;;34.84;27.03;100012.75;5110290;28;19922;-48
2021/07/09 09:42:26;;;;;;;;;;;;;;;34.72;26.06;100001.84;5110956;28;19912;-49
2021/07/09 09:44:57;;;;;;;;;;;;;;;34.60;26.49;100011.81;5111262;28;19966;-51
2021/07/09 09:47:23;;;;;;;;;;;;;;;33.81;28.04;100003.53;5111036;28;19912;-51
2021/07/09 09:49:58;;;;;;;;;;;;;;;33.92;28.06;100004.63;5111038;28;20352;-50
2021/07/09 09:52:33;;;;;;;;;;;;;;;34.41;27.51;99992.44;5092812;28;20293;-49
2021/07/09 09:54:58;;;;;;;;;;;;;;;34.73;27.13;100000.66;5111296;28;19919;-51
2021/07/09 09:57:23;;;;;;;;;;;;;;;35.06;26.40;99997.47;5093225;28;19915;-51
2021/07/09 09:59:51;;;;;;;;;;;;;;;34.34;27.14;99987.53;5111096;28;19999;-51
2021/07/09 10:02:16;;;;;;;;;;;;;;;33.74;28.02;99984.84;5111049;28;19912;-50
2021/07/09 10:04:41;;;;;;;;;;;;;;;33.79;28.36;99998.38;5111229;28;19919;-49
2021/07/09 10:07:06;;;;;;;;;;;;;;;33.75;28.73;99994.72;5110809;28;19912;-51
2021/07/09 10:09:32;;;;;;;;;;;;;;;34.33;28.00;99990.66;5092395;28;20299;-50
2021/07/09 10:11:58;;;;;;;;;;;;;;;35.06;26.97;99986.41;5092711;28;19912;-52
2021/07/09 10:14:26;;;;;;;;;;;;;;;34.92;27.83;99978.63;5103937;28;19911;-52
2021/07/09 10:16:51;;;;;;;;;;;;;;;35.20;26.60;99977.63;5128911;28;19919;-52
2021/07/09 10:19:20;;;;;;;;;;;;;;;34.48;27.77;99984.28;5131098;27;20019;-52
2021/07/09 10:21:46;;;;;;;;;;;;;;;34.13;28.04;99985.03;5111266;28;20023;-51
2021/07/09 10:24:12;;;;;;;;;;;;;;;34.88;27.79;99979.69;5110517;28;20257;-50
2021/07/09 10:26:41;;;;;;;;;;;;;;;36.00;25.49;99966.84;5092281;28;19911;-50
2021/07/09 10:29:15;;;;;;;;;;;;;;;35.28;26.69;99964.72;5110124;28;19968;-50
2021/07/09 10:31:41;;;;;;;;;;;;;;;35.60;27.42;99955.09;5109867;28;20019;-52
2021/07/09 10:34:24;;;;;;;;;;;;;;;35.85;25.75;99956.69;5110112;28;19991;-52
2021/07/09 10:36:51;;;;;;;;;;;;;;;36.09;25.08;99952.75;5119250;28;19912;-51
2021/07/09 10:39:29;;;;;;;;;;;;;;;36.43;25.47;99945.38;5130996;28;19915;-51
2021/07/09 10:41:54;;;;;;;;;;;;;;;36.44;24.77;99949.72;5130941;28;19930;-52
2021/07/09 10:44:19;;;;;;;;;;;;;;;35.86;25.42;99948.03;5130824;27;19915;-50
2021/07/09 10:46:45;;;;;;;;;;;;;;;35.14;26.36;99943.09;5130948;28;20082;-50
2021/07/09 10:49:10;;;;;;;;;;;;;;;35.29;25.97;99947.78;5131217;28;19911;-50
2021/07/09 10:51:48;;;;;;;;;;;;;;;35.29;27.07;99945.00;5133621;27;19911;-51
2021/07/09 10:54:23;;;;;;;;;;;;;;;35.54;25.90;99930.84;5134613;27;19954;-52
2021/07/09 10:56:48;;;;;;;;;;;;;;;36.12;25.58;99924.28;5134657;27;20043;-51
2021/07/09 10:59:13;;;;;;;;;;;;;;;35.59;25.42;99931.34;5116055;27;20371;-51
2021/07/09 11:01:39;;;;;;;;;;;;;;;35.85;26.10;99931.78;5134476;27;19919;-52
2021/07/09 11:04:08;;;;;;;;;;;;;;;35.57;25.81;99927.34;5134652;27;19919;-51
2021/07/09 11:06:33;;;;;;;;;;;;;;;35.72;25.15;99922.88;5134110;27;19919;-50
2021/07/09 11:09:05;;;;;;;;;;;;;;;36.01;25.11;99924.16;5134493;27;19915;-54
2021/07/09 11:11:39;;;;;;;;;;;;;;;35.37;25.88;99932.09;5134592;27;19912;-50
2021/07/09 11:14:08;;;;;;;;;;;;;;;34.76;27.19;99920.63;5134370;27;19923;-52
2021/07/09 11:16:35;;;;;;;;;;;;;;;35.27;26.63;99918.91;5134492;27;20091;-51
2021/07/09 11:19:03;;;;;;;;;;;;;;;35.27;26.45;99913.38;5133883;27;19992;-48
2021/07/09 11:21:31;;;;;;;;;;;;;;;35.02;26.87;99916.41;5116044;27;20288;-51
2021/07/09 11:24:00;;;;;;;;;;;;;;;35.38;27.04;99909.63;5113369;28;20296;-52
2021/07/09 11:26:26;;;;;;;;;;;;;;;36.27;26.59;99908.72;5113730;28;19938;-52
2021/07/09 11:28:51;;;;;;;;;;;;;;;35.75;25.89;99913.84;5113322;28;20369;-51
2021/07/09 11:31:35;;;;;;;;;;;;;;;35.69;26.86;99904.25;5113148;28;19961;-51
2021/07/09 11:34:01;;;;;;;;;;;;;;;35.13;27.41;99908.31;5113599;28;19912;-50
2021/07/09 11:36:27;;;;;;;;;;;;;;;35.24;27.35;99904.63;5113252;28;19934;-51
2021/07/09 11:39:08;;;;;;;;;;;;;;;35.91;26.81;99894.31;5113092;28;19912;-49
2021/07/09 11:41:53;;;;;;;;;;;;;;;36.47;26.29;99888.03;5095075;28;19973;-51
2021/07/09 11:44:18;;;;;;;;;;;;;;;36.07;26.35;99900.50;5113000;28;20025;-51
2021/07/09 11:46:50;;;;;;;;;;;;;;;35.66;26.96;99891.09;5113128;28;19912;-51
2021/07/09 11:49:16;;;;;;;;;;;;;;;35.79;26.69;99878.72;5113221;28;19911;-51
2021/07/09 11:51:45;;;;;;;;;;;;;;;35.73;26.71;99881.00;5113070;28;19918;-52
2021/07/09 11:54:11;;;;;;;;;;;;;;;35.62;26.28;99883.56;5113067;28;20472;-49
2021/07/09 11:56:37;;;;;;;;;;;;;;;35.81;26.21;99879.13;5112882;28;19949;-52
2021/07/09 11:59:21;;;;;;;;;;;;;;;35.46;26.16;99882.88;5112886;28;20343;-50
2021/07/09 12:02:04;;;;;;;;;;;;;;;35.80;26.49;99875.56;5112145;28;19915;-49
2021/07/09 12:04:30;;;;;;;;;;;;;;;35.99;25.83;99876.66;5113134;28;19919;-52
2021/07/09 12:07:15;;;;;;;;;;;;;;;36.19;24.52;99867.09;5112743;28;19912;-52
2021/07/09 12:09:42;;;;;;;;;;;;;;;36.37;24.79;99861.00;5112727;28;19912;-51
2021/07/09 12:12:08;;;;;;;;;;;;;;;36.12;25.69;99864.19;5112698;28;19915;-50
2021/07/09 12:14:47;;;;;;;;;;;;;;;35.92;25.53;99863.50;5115005;27;20255;-52
2021/07/09 12:17:13;;;;;;;;;;;;;;;35.58;25.53;99865.28;5132105;27;20354;-52
2021/07/09 12:19:57;;;;;;;;;;;;;;;35.86;25.73;99848.38;5129894;27;19923;-55
2021/07/09 12:22:27;;;;;;;;;;;;;;;35.85;26.27;99859.81;5094352;28;19915;-53
2021/07/09 12:24:52;;;;;;;;;;;;;;;35.70;25.83;99858.78;5114266;27;20399;-53
2021/07/09 12:27:17;;;;;;;;;;;;;;;35.28;26.53;99854.09;5132764;27;19961;-52
2021/07/09 12:29:43;;;;;;;;;;;;;;;34.84;26.48;99856.06;5132932;27;19950;-52
2021/07/09 12:32:08;;;;;;;;;;;;;;;35.13;26.07;99847.47;5114290;27;19965;-51
2021/07/09 12:34:33;;;;;;;;;;;;;;;35.10;26.38;99842.69;5132554;27;19919;-52